sensor_id;sensor_type;location;lat;lon;timestamp;pressure;altitude;pressure_sealevel;temperature;humidity
7026;BME280;3554;42.132;24.786;2022-10-22T00:01:56;100317.00;;;9.24;100.00
7026;BME280;3554;42.132;24.786;2022-10-22T00:04:22;100311.78;;;9.24;100.00
7026;BME280;3554;42.132;24.786;2022-10-22T00:06:50;100314.38;;;9.25;100.00
7026;BME280;3554;42.132;24.786;2022-10-22T00:09:17;100297.28;;;9.09;100.00
7026;BME280;3554;42.132;24.786;2022-10-22T00:11:44;100290.34;;;9.08;100.00
7026;BME280;3554;42.132;24.786;2022-10-22T00:14:11;100255.19;;;8.82;100.00
7026;BME280;3554;42.132;24.786;2022-10-22T00:16:38;100285.25;;;9.01;100.00
7026;BME280;3554;42.132;24.786;2022-10-22T00:19:04;100286.13;;;9.01;100.00
7026;BME280;3554;42.132;24.786;2022-10-22T00:21:33;100290.53;;;8.98;100.00
7026;BME280;3554;42.132;24.786;2022-10-22T00:24:01;100279.25;;;8.96;100.00
7026;BME280;3554;42.132;24.786;2022-10-22T00:26:28;100283.06;;;8.80;100.00
7026;BME280;3554;42.132;24.786;2022-10-22T00:28:55;100278.78;;;8.77;100.00
7026;BME280;3554;42.132;24.786;2022-10-22T00:31:23;100275.91;;;8.89;100.00
7026;BME280;3554;42.132;24.786;2022-10-22T00:33:50;100270.59;;;8.94;100.00
7026;BME280;3554;42.132;24.786;2022-10-22T00:36:17;100269.63;;;8.99;100.00
7026;BME280;3554;42.132;24.786;2022-10-22T00:38:44;100270.38;;;9.06;100.00
7026;BME280;3554;42.132;24.786;2022-10-22T00:41:12;100265.16;;;9.04;100.00
7026;BME280;3554;42.132;24.786;2022-10-22T00:43:57;100265.94;;;9.09;100.00
7026;BME280;3554;42.132;24.786;2022-10-22T00:46:25;100269.59;;;9.01;100.00
7026;BME280;3554;42.132;24.786;2022-10-22T00:48:53;100262.53;;;9.04;100.00
7026;BME280;3554;42.132;24.786;2022-10-22T00:51:21;100257.50;;;8.97;100.00
7026;BME280;3554;42.132;24.786;2022-10-22T00:53:54;100247.19;;;8.89;100.00
7026;BME280;3554;42.132;24.786;2022-10-22T00:56:23;100260.88;;;9.02;100.00
7026;BME280;3554;42.132;24.786;2022-10-22T00:58:54;100257.53;;;8.95;100.00
7026;BME280;3554;42.132;24.786;2022-10-22T01:01:25;100268.78;;;8.99;100.00
7026;BME280;3554;42.132;24.786;2022-10-22T01:03:53;100232.63;;;8.78;100.00
7026;BME280;3554;42.132;24.786;2022-10-22T01:06:23;100267.97;;;8.94;100.00
7026;BME280;3554;42.132;24.786;2022-10-22T01:08:55;100268.81;;;8.96;100.00
7026;BME280;3554;42.132;24.786;2022-10-22T01:11:33;100268.09;;;8.89;100.00
7026;BME280;3554;42.132;24.786;2022-10-22T01:14:04;100249.09;;;8.81;100.00
7026;BME280;3554;42.132;24.786;2022-10-22T01:16:43;100255.09;;;8.85;100.00
7026;BME280;3554;42.132;24.786;2022-10-22T01:19:29;100247.28;;;8.85;100.00
7026;BME280;3554;42.132;24.786;2022-10-22T01:22:04;100246.84;;;8.63;100.00
7026;BME280;3554;42.132;24.786;2022-10-22T01:24:40;100252.03;;;8.64;100.00
7026;BME280;3554;42.132;24.786;2022-10-22T01:27:23;100251.88;;;8.74;100.00
7026;BME280;3554;42.132;24.786;2022-10-22T01:29:56;100223.50;;;8.55;100.00
7026;BME280;3554;42.132;24.786;2022-10-22T01:32:25;100246.81;;;8.64;100.00
7026;BME280;3554;42.132;24.786;2022-10-22T01:34:55;100248.47;;;8.70;100.00
7026;BME280;3554;42.132;24.786;2022-10-22T01:37:25;100245.03;;;8.67;100.00
7026;BME280;3554;42.132;24.786;2022-10-22T01:39:55;100238.19;;;8.61;100.00
7026;BME280;3554;42.132;24.786;2022-10-22T01:42:23;100247.72;;;8.62;100.00
7026;BME280;3554;42.132;24.786;2022-10-22T01:44:50;100247.69;;;8.63;100.00
7026;BME280;3554;42.132;24.786;2022-10-22T01:47:25;100203.81;;;8.39;100.00
7026;BME280;3554;42.132;24.786;2022-10-22T01:50:12;100240.66;;;8.67;100.00
7026;BME280;3554;42.132;24.786;2022-10-22T01:52:52;100239.78;;;8.68;100.00
7026;BME280;3554;42.132;24.786;2022-10-22T01:55:27;100238.88;;;8.69;100.00
7026;BME280;3554;42.132;24.786;2022-10-22T01:58:03;100238.84;;;8.72;100.00
7026;BME280;3554;42.132;24.786;2022-10-22T02:00:37;100238.06;;;8.69;100.00
7026;BME280;3554;42.132;24.786;2022-10-22T02:03:09;100232.16;;;8.57;100.00
7026;BME280;3554;42.132;24.786;2022-10-22T02:05:43;100242.50;;;8.62;100.00
7026;BME280;3554;42.132;24.786;2022-10-22T02:08:14;100250.31;;;8.65;100.00
7026;BME280;3554;42.132;24.786;2022-10-22T02:10:45;100250.56;;;8.50;100.00
7026;BME280;3554;42.132;24.786;2022-10-22T02:13:16;100242.94;;;8.39;100.00
7026;BME280;3554;42.132;24.786;2022-10-22T02:15:45;100126.88;;;7.67;100.00
7026;BME280;3554;42.132;24.786;2022-10-22T02:18:14;100246.44;;;8.37;100.00
7026;BME280;3554;42.132;24.786;2022-10-22T02:20:43;100243.03;;;8.33;100.00
7026;BME280;3554;42.132;24.786;2022-10-22T02:23:10;100239.50;;;8.37;100.00
7026;BME280;3554;42.132;24.786;2022-10-22T02:25:39;100244.78;;;8.34;100.00
7026;BME280;3554;42.132;24.786;2022-10-22T02:28:12;100241.22;;;8.37;100.00
7026;BME280;3554;42.132;24.786;2022-10-22T02:30:45;100238.81;;;8.26;100.00
7026;BME280;3554;42.132;24.786;2022-10-22T02:33:17;100236.97;;;8.31;100.00
7026;BME280;3554;42.132;24.786;2022-10-22T02:35:47;100243.88;;;8.35;100.00
7026;BME280;3554;42.132;24.786;2022-10-22T02:38:15;100241.38;;;8.29;100.00
7026;BME280;3554;42.132;24.786;2022-10-22T02:40:43;100243.94;;;8.32;100.00
7026;BME280;3554;42.132;24.786;2022-10-22T02:43:10;100243.97;;;8.31;100.00
7026;BME280;3554;42.132;24.786;2022-10-22T02:45:37;100241.38;;;8.29;100.00
7026;BME280;3554;42.132;24.786;2022-10-22T02:48:04;100237.91;;;8.29;100.00
7026;BME280;3554;42.132;24.786;2022-10-22T02:50:32;100237.88;;;8.30;100.00
7026;BME280;3554;42.132;24.786;2022-10-22T02:52:59;100240.56;;;8.24;100.00
7026;BME280;3554;42.132;24.786;2022-10-22T02:55:26;100241.56;;;8.16;100.00
7026;BME280;3554;42.132;24.786;2022-10-22T02:57:53;100250.25;;;8.16;100.00
7026;BME280;3554;42.132;24.786;2022-10-22T03:00:21;100245.88;;;8.18;100.00
7026;BME280;3554;42.132;24.786;2022-10-22T03:02:51;100245.97;;;8.12;100.00
7026;BME280;3554;42.132;24.786;2022-10-22T03:05:18;100249.47;;;8.11;100.00
7026;BME280;3554;42.132;24.786;2022-10-22T03:07:46;100246.88;;;8.11;100.00
7026;BME280;3554;42.132;24.786;2022-10-22T03:10:13;100256.53;;;8.06;100.00
7026;BME280;3554;42.132;24.786;2022-10-22T03:12:40;100258.31;;;8.01;100.00
7026;BME280;3554;42.132;24.786;2022-10-22T03:15:07;100258.31;;;8.01;100.00
7026;BME280;3554;42.132;24.786;2022-10-22T03:17:34;100264.63;;;7.88;100.00
7026;BME280;3554;42.132;24.786;2022-10-22T03:20:00;100255.16;;;7.83;100.00
7026;BME280;3554;42.132;24.786;2022-10-22T03:22:28;100242.91;;;7.88;100.00
7026;BME280;3554;42.132;24.786;2022-10-22T03:25:03;100247.19;;;7.92;100.00
7026;BME280;3554;42.132;24.786;2022-10-22T03:27:33;100243.78;;;7.88;100.00
7026;BME280;3554;42.132;24.786;2022-10-22T03:30:00;100242.03;;;7.87;100.00
7026;BME280;3554;42.132;24.786;2022-10-22T03:32:28;100238.59;;;7.85;100.00
7026;BME280;3554;42.132;24.786;2022-10-22T03:34:54;100236.91;;;7.83;100.00
7026;BME280;3554;42.132;24.786;2022-10-22T03:37:21;100242.19;;;7.78;100.00
7026;BME280;3554;42.132;24.786;2022-10-22T03:39:50;100234.41;;;7.75;100.00
7026;BME280;3554;42.132;24.786;2022-10-22T03:42:19;100230.09;;;7.76;100.00
7026;BME280;3554;42.132;24.786;2022-10-22T03:44:46;100234.38;;;7.78;100.00
7026;BME280;3554;42.132;24.786;2022-10-22T03:47:13;100237.03;;;7.75;100.00
7026;BME280;3554;42.132;24.786;2022-10-22T03:49:40;100239.66;;;7.74;100.00
7026;BME280;3554;42.132;24.786;2022-10-22T03:52:07;100248.34;;;7.73;100.00
7026;BME280;3554;42.132;24.786;2022-10-22T03:54:35;100241.44;;;7.70;100.00
7026;BME280;3554;42.132;24.786;2022-10-22T03:57:03;100246.75;;;7.64;100.00
7026;BME280;3554;42.132;24.786;2022-10-22T03:59:34;100239.84;;;7.60;100.00
7026;BME280;3554;42.132;24.786;2022-10-22T04:02:01;100220.13;;;7.45;100.00
7026;BME280;3554;42.132;24.786;2022-10-22T04:04:28;100193.69;;;7.10;100.00
7026;BME280;3554;42.132;24.786;2022-10-22T04:06:55;100245.50;;;7.30;100.00
7026;BME280;3554;42.132;24.786;2022-10-22T04:09:22;100235.47;;;7.00;100.00
7026;BME280;3554;42.132;24.786;2022-10-22T04:11:49;100233.41;;;7.26;100.00
7026;BME280;3554;42.132;24.786;2022-10-22T04:14:16;100232.53;;;7.27;100.00
7026;BME280;3554;42.132;24.786;2022-10-22T04:16:44;100242.88;;;7.31;100.00
7026;BME280;3554;42.132;24.786;2022-10-22T04:19:12;100195.47;;;7.08;100.00
7026;BME280;3554;42.132;24.786;2022-10-22T04:21:39;100244.53;;;7.35;100.00
7026;BME280;3554;42.132;24.786;2022-10-22T04:24:06;100247.97;;;7.39;100.00
7026;BME280;3554;42.132;24.786;2022-10-22T04:26:32;100248.88;;;7.38;100.00
7026;BME280;3554;42.132;24.786;2022-10-22T04:28:59;100247.97;;;7.39;100.00
7026;BME280;3554;42.132;24.786;2022-10-22T04:31:26;100248.88;;;7.38;100.00
7026;BME280;3554;42.132;24.786;2022-10-22T04:33:56;100253.13;;;7.43;100.00
7026;BME280;3554;42.132;24.786;2022-10-22T04:36:23;100252.25;;;7.44;100.00
7026;BME280;3554;42.132;24.786;2022-10-22T04:38:52;100250.50;;;7.45;100.00
7026;BME280;3554;42.132;24.786;2022-10-22T04:41:23;100241.03;;;7.39;100.00
7026;BME280;3554;42.132;24.786;2022-10-22T04:43:52;100255.69;;;7.46;100.00
7026;BME280;3554;42.132;24.786;2022-10-22T04:46:19;100216.97;;;7.22;100.00
7026;BME280;3554;42.132;24.786;2022-10-22T04:48:46;100247.00;;;7.47;100.00
7026;BME280;3554;42.132;24.786;2022-10-22T04:51:16;100202.94;;;7.32;100.00
7026;BME280;3554;42.132;24.786;2022-10-22T04:53:44;100235.63;;;7.53;100.00
7026;BME280;3554;42.132;24.786;2022-10-22T04:56:13;100227.72;;;7.59;100.00
7026;BME280;3554;42.132;24.786;2022-10-22T04:58:42;100224.25;;;7.58;100.00
7026;BME280;3554;42.132;24.786;2022-10-22T05:01:11;100237.13;;;7.68;100.00
7026;BME280;3554;42.132;24.786;2022-10-22T05:03:38;100228.44;;;7.70;100.00
7026;BME280;3554;42.132;24.786;2022-10-22T05:06:05;100235.28;;;7.76;100.00
7026;BME280;3554;42.132;24.786;2022-10-22T05:08:34;100236.06;;;7.81;100.00
7026;BME280;3554;42.132;24.786;2022-10-22T05:11:01;100249.03;;;7.84;100.00
7026;BME280;3554;42.132;24.786;2022-10-22T05:13:35;100222.91;;;7.90;100.00
7026;BME280;3554;42.132;24.786;2022-10-22T05:16:02;100234.97;;;7.95;100.00
7026;BME280;3554;42.132;24.786;2022-10-22T05:18:29;100242.66;;;8.04;100.00
7026;BME280;3554;42.132;24.786;2022-10-22T05:20:56;100229.50;;;8.10;100.00
7026;BME280;3554;42.132;24.786;2022-10-22T05:23:22;100244.13;;;8.20;100.00
7026;BME280;3554;42.132;24.786;2022-10-22T05:25:50;100239.56;;;7.78;100.00
7026;BME280;3554;42.132;24.786;2022-10-22T05:28:17;100237.59;;;7.92;100.00
7026;BME280;3554;42.132;24.786;2022-10-22T05:30:52;100230.06;;;8.30;100.00
7026;BME280;3554;42.132;24.786;2022-10-22T05:33:18;100239.34;;;8.45;100.00
7026;BME280;3554;42.132;24.786;2022-10-22T05:35:47;100247.66;;;8.67;100.00
7026;BME280;3554;42.132;24.786;2022-10-22T05:38:13;100252.44;;;8.89;100.00
7026;BME280;3554;42.132;24.786;2022-10-22T05:40:40;100251.13;;;9.10;100.00
7026;BME280;3554;42.132;24.786;2022-10-22T05:43:09;100251.72;;;9.22;100.00
7026;BME280;3554;42.132;24.786;2022-10-22T05:45:36;100253.25;;;9.34;100.00
7026;BME280;3554;42.132;24.786;2022-10-22T05:48:03;100251.47;;;9.36;100.00
7026;BME280;3554;42.132;24.786;2022-10-22T05:50:30;100245.91;;;9.11;100.00
7026;BME280;3554;42.132;24.786;2022-10-22T05:52:57;100267.66;;;9.10;100.00
7026;BME280;3554;42.132;24.786;2022-10-22T05:55:24;100265.09;;;9.09;100.00
7026;BME280;3554;42.132;24.786;2022-10-22T05:57:51;100262.44;;;9.10;100.00
7026;BME280;3554;42.132;24.786;2022-10-22T06:00:19;100263.19;;;9.15;100.00
7026;BME280;3554;42.132;24.786;2022-10-22T06:02:48;100269.53;;;9.04;100.00
7026;BME280;3554;42.132;24.786;2022-10-22T06:05:15;100268.38;;;9.18;100.00
7026;BME280;3554;42.132;24.786;2022-10-22T06:07:42;100271.44;;;9.37;100.00
7026;BME280;3554;42.132;24.786;2022-10-22T06:10:13;100264.97;;;9.54;100.00
7026;BME280;3554;42.132;24.786;2022-10-22T06:12:41;100266.81;;;9.49;100.00
7026;BME280;3554;42.132;24.786;2022-10-22T06:15:09;100269.34;;;9.54;100.00
7026;BME280;3554;42.132;24.786;2022-10-22T06:17:38;100247.91;;;9.38;100.00
7026;BME280;3554;42.132;24.786;2022-10-22T06:20:06;100270.75;;;9.68;100.00
7026;BME280;3554;42.132;24.786;2022-10-22T06:22:33;100257.41;;;9.79;100.00
7026;BME280;3554;42.132;24.786;2022-10-22T06:25:00;100273.63;;;9.95;100.00
7026;BME280;3554;42.132;24.786;2022-10-22T06:27:27;100267.31;;;10.03;100.00
7026;BME280;3554;42.132;24.786;2022-10-22T06:29:53;100268.72;;;9.43;100.00
7026;BME280;3554;42.132;24.786;2022-10-22T06:32:20;100269.47;;;9.07;100.00
7026;BME280;3554;42.132;24.786;2022-10-22T06:34:48;100261.38;;;9.19;100.00
7026;BME280;3554;42.132;24.786;2022-10-22T06:37:16;100270.69;;;9.32;100.00
7026;BME280;3554;42.132;24.786;2022-10-22T06:39:43;100270.66;;;9.73;100.00
7026;BME280;3554;42.132;24.786;2022-10-22T06:42:10;100277.41;;;10.20;100.00
7026;BME280;3554;42.132;24.786;2022-10-22T06:44:37;100275.09;;;10.06;100.00
7026;BME280;3554;42.132;24.786;2022-10-22T06:47:04;100275.63;;;10.20;100.00
7026;BME280;3554;42.132;24.786;2022-10-22T06:49:31;100278.75;;;10.36;100.00
7026;BME280;3554;42.132;24.786;2022-10-22T06:51:59;100289.75;;;10.48;100.00
7026;BME280;3554;42.132;24.786;2022-10-22T06:54:26;100286.38;;;10.77;100.00
7026;BME280;3554;42.132;24.786;2022-10-22T06:56:52;100285.19;;;10.89;100.00
7026;BME280;3554;42.132;24.786;2022-10-22T06:59:19;100291.78;;;10.71;100.00
7026;BME280;3554;42.132;24.786;2022-10-22T07:01:46;100294.50;;;10.66;100.00
7026;BME280;3554;42.132;24.786;2022-10-22T07:04:13;100302.69;;;10.54;100.00
7026;BME280;3554;42.132;24.786;2022-10-22T07:06:40;100304.31;;;10.92;100.00
7026;BME280;3554;42.132;24.786;2022-10-22T07:09:08;100307.00;;;11.50;100.00
7026;BME280;3554;42.132;24.786;2022-10-22T07:11:38;100306.72;;;12.16;100.00
7026;BME280;3554;42.132;24.786;2022-10-22T07:14:05;100308.72;;;12.10;100.00
7026;BME280;3554;42.132;24.786;2022-10-22T07:16:32;100311.50;;;11.76;100.00
7026;BME280;3554;42.132;24.786;2022-10-22T07:18:59;100314.13;;;12.31;100.00
7026;BME280;3554;42.132;24.786;2022-10-22T07:21:27;100308.38;;;12.71;100.00
7026;BME280;3554;42.132;24.786;2022-10-22T07:23:54;100303.63;;;12.82;100.00
7026;BME280;3554;42.132;24.786;2022-10-22T07:26:22;100303.22;;;13.19;100.00
7026;BME280;3554;42.132;24.786;2022-10-22T07:28:51;100306.50;;;13.25;100.00
7026;BME280;3554;42.132;24.786;2022-10-22T07:31:18;100302.38;;;13.18;100.00
7026;BME280;3554;42.132;24.786;2022-10-22T07:33:45;100289.28;;;13.17;100.00
7026;BME280;3554;42.132;24.786;2022-10-22T07:36:14;100303.84;;;13.25;100.00
7026;BME280;3554;42.132;24.786;2022-10-22T07:38:43;100288.94;;;13.26;100.00
7026;BME280;3554;42.132;24.786;2022-10-22T07:41:10;100293.81;;;13.36;100.00
7026;BME280;3554;42.132;24.786;2022-10-22T07:43:38;100300.44;;;13.46;100.00
7026;BME280;3554;42.132;24.786;2022-10-22T07:46:05;100298.19;;;13.59;100.00
7026;BME280;3554;42.132;24.786;2022-10-22T07:48:33;100303.63;;;13.77;100.00
7026;BME280;3554;42.132;24.786;2022-10-22T07:51:00;100314.16;;;13.99;100.00
7026;BME280;3554;42.132;24.786;2022-10-22T07:53:31;100309.31;;;13.67;100.00
7026;BME280;3554;42.132;24.786;2022-10-22T07:55:58;100298.78;;;13.67;100.00
7026;BME280;3554;42.132;24.786;2022-10-22T07:58:25;100306.81;;;13.85;100.00
7026;BME280;3554;42.132;24.786;2022-10-22T08:00:56;100304.19;;;14.07;100.00
7026;BME280;3554;42.132;24.786;2022-10-22T08:03:25;100301.75;;;13.81;100.00
7026;BME280;3554;42.132;24.786;2022-10-22T08:05:53;100300.75;;;14.05;100.00
7026;BME280;3554;42.132;24.786;2022-10-22T08:08:20;100247.38;;;13.80;100.00
7026;BME280;3554;42.132;24.786;2022-10-22T08:10:50;100242.34;;;13.95;100.00
7026;BME280;3554;42.132;24.786;2022-10-22T08:13:18;100284.28;;;14.22;100.00
7026;BME280;3554;42.132;24.786;2022-10-22T08:15:45;100298.16;;;14.27;100.00
7026;BME280;3554;42.132;24.786;2022-10-22T08:18:13;100304.75;;;14.37;100.00
7026;BME280;3554;42.132;24.786;2022-10-22T08:20:40;100297.09;;;14.52;100.00
7026;BME280;3554;42.132;24.786;2022-10-22T08:23:07;100291.38;;;14.63;100.00
7026;BME280;3554;42.132;24.786;2022-10-22T08:25:36;100295.31;;;14.73;100.00
7026;BME280;3554;42.132;24.786;2022-10-22T08:28:03;100292.69;;;14.73;100.00
7026;BME280;3554;42.132;24.786;2022-10-22T08:30:30;100297.16;;;14.71;100.00
7026;BME280;3554;42.132;24.786;2022-10-22T08:33:18;100292.81;;;14.90;100.00
7026;BME280;3554;42.132;24.786;2022-10-22T08:35:47;100291.03;;;14.90;100.00
7026;BME280;3554;42.132;24.786;2022-10-22T08:38:14;100287.94;;;14.81;100.00
7026;BME280;3554;42.132;24.786;2022-10-22T08:40:43;100284.72;;;14.74;100.00
7026;BME280;3554;42.132;24.786;2022-10-22T08:43:23;100270.09;;;14.87;100.00
7026;BME280;3554;42.132;24.786;2022-10-22T08:46:05;100278.22;;;15.22;100.00
7026;BME280;3554;42.132;24.786;2022-10-22T08:48:42;100289.41;;;15.27;100.00
7026;BME280;3554;42.132;24.786;2022-10-22T08:51:14;100279.28;;;15.36;100.00
7026;BME280;3554;42.132;24.786;2022-10-22T08:53:57;100280.00;;;15.41;100.00
7026;BME280;3554;42.132;24.786;2022-10-22T08:56:30;100265.19;;;15.57;100.00
7026;BME280;3554;42.132;24.786;2022-10-22T08:59:01;100268.84;;;15.72;100.00
7026;BME280;3554;42.132;24.786;2022-10-22T09:01:33;100263.28;;;15.78;100.00
7026;BME280;3554;42.132;24.786;2022-10-22T09:04:07;100260.88;;;15.73;100.00
7026;BME280;3554;42.132;24.786;2022-10-22T09:06:39;100249.94;;;15.81;100.00
7026;BME280;3554;42.132;24.786;2022-10-22T09:09:10;100255.66;;;16.07;100.00
7026;BME280;3554;42.132;24.786;2022-10-22T09:11:42;100254.56;;;16.30;100.00
7026;BME280;3554;42.132;24.786;2022-10-22T09:14:11;100259.97;;;16.27;100.00
7026;BME280;3554;42.132;24.786;2022-10-22T09:19:39;100249.03;;;15.82;100.00
7026;BME280;3554;42.132;24.786;2022-10-22T09:22:17;100243.16;;;16.11;100.00
7026;BME280;3554;42.132;24.786;2022-10-22T09:24:47;100246.31;;;15.83;100.00
7026;BME280;3554;42.132;24.786;2022-10-22T09:27:17;100246.56;;;15.96;100.00
7026;BME280;3554;42.132;24.786;2022-10-22T09:29:46;100233.97;;;16.20;100.00
7026;BME280;3554;42.132;24.786;2022-10-22T09:32:13;100223.59;;;16.15;100.00
7026;BME280;3554;42.132;24.786;2022-10-22T09:34:44;100228.72;;;16.01;100.00
7026;BME280;3554;42.132;24.786;2022-10-22T09:37:11;100229.06;;;16.12;100.00
7026;BME280;3554;42.132;24.786;2022-10-22T09:39:44;100234.22;;;16.32;100.00
7026;BME280;3554;42.132;24.786;2022-10-22T09:42:14;100232.03;;;16.74;100.00
7026;BME280;3554;42.132;24.786;2022-10-22T09:44:42;100232.41;;;17.17;100.00
7026;BME280;3554;42.132;24.786;2022-10-22T09:47:28;100219.28;;;17.48;100.00
7026;BME280;3554;42.132;24.786;2022-10-22T09:50:09;100103.34;;;16.75;100.00
7026;BME280;3554;42.132;24.786;2022-10-22T09:52:39;100212.94;;;17.66;100.00
7026;BME280;3554;42.132;24.786;2022-10-22T09:55:12;100200.31;;;17.71;100.00
7026;BME280;3554;42.132;24.786;2022-10-22T09:57:39;100188.69;;;17.73;100.00
7026;BME280;3554;42.132;24.786;2022-10-22T10:00:08;100191.84;;;17.64;100.00
7026;BME280;3554;42.132;24.786;2022-10-22T10:02:39;100185.72;;;17.64;100.00
7026;BME280;3554;42.132;24.786;2022-10-22T10:05:17;100192.63;;;17.51;100.00
7026;BME280;3554;42.132;24.786;2022-10-22T10:07:44;100188.59;;;17.44;100.00
7026;BME280;3554;42.132;24.786;2022-10-22T10:10:18;100169.00;;;16.99;100.00
7026;BME280;3554;42.132;24.786;2022-10-22T10:12:53;100176.22;;;16.63;100.00
7026;BME280;3554;42.132;24.786;2022-10-22T10:15:27;100119.47;;;16.36;100.00
7026;BME280;3554;42.132;24.786;2022-10-22T10:18:03;100177.94;;;16.97;100.00
7026;BME280;3554;42.132;24.786;2022-10-22T10:20:39;100173.63;;;17.11;100.00
7026;BME280;3554;42.132;24.786;2022-10-22T10:23:13;100172.59;;;17.30;100.00
7026;BME280;3554;42.132;24.786;2022-10-22T10:25:52;100156.19;;;17.23;99.98
7026;BME280;3554;42.132;24.786;2022-10-22T10:28:36;100155.69;;;17.32;100.00
7026;BME280;3554;42.132;24.786;2022-10-22T10:31:14;100152.72;;;17.23;99.38
7026;BME280;3554;42.132;24.786;2022-10-22T10:33:46;100153.88;;;17.50;99.26
7026;BME280;3554;42.132;24.786;2022-10-22T10:36:24;100157.25;;;17.52;99.33
7026;BME280;3554;42.132;24.786;2022-10-22T10:38:56;100132.91;;;17.45;97.60
7026;BME280;3554;42.132;24.786;2022-10-22T10:41:32;100127.97;;;17.55;98.94
7026;BME280;3554;42.132;24.786;2022-10-22T10:47:19;100123.34;;;17.74;95.86
7026;BME280;3554;42.132;24.786;2022-10-22T10:49:51;100115.44;;;17.58;94.73
7026;BME280;3554;42.132;24.786;2022-10-22T10:52:25;100095.69;;;17.33;95.85
7026;BME280;3554;42.132;24.786;2022-10-22T10:55:02;100104.03;;;17.72;94.00
7026;BME280;3554;42.132;24.786;2022-10-22T10:57:39;100097.25;;;17.82;91.60
7026;BME280;3554;42.132;24.786;2022-10-22T11:00:14;100092.94;;;17.95;91.48
7026;BME280;3554;42.132;24.786;2022-10-22T11:05:43;100088.22;;;18.00;88.67
7026;BME280;3554;42.132;24.786;2022-10-22T11:08:18;100077.50;;;17.87;89.78
7026;BME280;3554;42.132;24.786;2022-10-22T11:10:49;100082.91;;;18.00;89.77
7026;BME280;3554;42.132;24.786;2022-10-22T11:13:22;100075.75;;;18.16;87.83
7026;BME280;3554;42.132;24.786;2022-10-22T11:15:56;100071.25;;;18.32;85.82
7026;BME280;3554;42.132;24.786;2022-10-22T11:18:29;100063.28;;;18.32;84.90
7026;BME280;3554;42.132;24.786;2022-10-22T11:21:13;100051.34;;;18.39;85.09
7026;BME280;3554;42.132;24.786;2022-10-22T11:23:47;100050.38;;;18.42;84.08
7026;BME280;3554;42.132;24.786;2022-10-22T11:26:30;100039.31;;;18.34;83.75
7026;BME280;3554;42.132;24.786;2022-10-22T11:29:00;100024.84;;;18.39;83.80
7026;BME280;3554;42.132;24.786;2022-10-22T11:31:30;100051.13;;;18.58;82.94
7026;BME280;3554;42.132;24.786;2022-10-22T11:34:04;100037.84;;;18.72;83.01
7026;BME280;3554;42.132;24.786;2022-10-22T11:36:33;100037.28;;;18.67;82.13
7026;BME280;3554;42.132;24.786;2022-10-22T11:39:03;100036.00;;;19.00;80.54
7026;BME280;3554;42.132;24.786;2022-10-22T11:41:32;100033.41;;;19.13;79.21
7026;BME280;3554;42.132;24.786;2022-10-22T11:44:10;100024.81;;;19.36;77.24
7026;BME280;3554;42.132;24.786;2022-10-22T11:46:55;100018.47;;;19.51;76.51
7026;BME280;3554;42.132;24.786;2022-10-22T11:49:25;100010.50;;;19.51;73.64
7026;BME280;3554;42.132;24.786;2022-10-22T11:52:12;99991.41;;;19.59;72.48
7026;BME280;3554;42.132;24.786;2022-10-22T11:54:53;100010.25;;;19.81;71.96
7026;BME280;3554;42.132;24.786;2022-10-22T11:57:25;100009.19;;;19.96;71.94
7026;BME280;3554;42.132;24.786;2022-10-22T11:59:56;99997.81;;;20.06;70.64
7026;BME280;3554;42.132;24.786;2022-10-22T12:02:30;99996.03;;;20.07;70.14
7026;BME280;3554;42.132;24.786;2022-10-22T12:05:17;100006.97;;;20.15;69.89
7026;BME280;3554;42.132;24.786;2022-10-22T12:07:52;100002.00;;;20.36;68.95
7026;BME280;3554;42.132;24.786;2022-10-22T12:10:26;99999.31;;;20.48;67.45
7026;BME280;3554;42.132;24.786;2022-10-22T12:12:55;99996.78;;;20.47;67.22
7026;BME280;3554;42.132;24.786;2022-10-22T12:15:25;99981.56;;;20.49;66.14
7026;BME280;3554;42.132;24.786;2022-10-22T12:17:58;99973.66;;;20.47;64.67
7026;BME280;3554;42.132;24.786;2022-10-22T12:20:26;99978.28;;;20.07;64.73
7026;BME280;3554;42.132;24.786;2022-10-22T12:22:54;99981.25;;;20.41;63.38
7026;BME280;3554;42.132;24.786;2022-10-22T12:25:28;99979.56;;;20.27;62.84
7026;BME280;3554;42.132;24.786;2022-10-22T12:27:56;99978.47;;;20.42;61.87
7026;BME280;3554;42.132;24.786;2022-10-22T12:30:24;99971.44;;;20.54;61.36
7026;BME280;3554;42.132;24.786;2022-10-22T12:32:52;99967.09;;;20.76;60.69
7026;BME280;3554;42.132;24.786;2022-10-22T12:35:22;99971.44;;;20.77;59.72
7026;BME280;3554;42.132;24.786;2022-10-22T12:37:50;99964.44;;;20.76;60.72
7026;BME280;3554;42.132;24.786;2022-10-22T12:40:19;99972.66;;;20.73;58.72
7026;BME280;3554;42.132;24.786;2022-10-22T12:42:49;99966.38;;;20.74;57.61
7026;BME280;3554;42.132;24.786;2022-10-22T12:45:16;99949.69;;;20.60;58.41
7026;BME280;3554;42.132;24.786;2022-10-22T12:47:47;99938.34;;;20.58;58.85
7026;BME280;3554;42.132;24.786;2022-10-22T12:50:17;99945.38;;;20.46;59.30
7026;BME280;3554;42.132;24.786;2022-10-22T12:52:44;99943.69;;;20.45;59.58
7026;BME280;3554;42.132;24.786;2022-10-22T12:55:16;99941.81;;;20.22;60.52
7026;BME280;3554;42.132;24.786;2022-10-22T12:57:45;99939.34;;;20.19;62.37
7026;BME280;3554;42.132;24.786;2022-10-22T13:00:22;99912.34;;;20.12;62.02
7026;BME280;3554;42.132;24.786;2022-10-22T13:02:49;99925.22;;;19.81;63.22
7026;BME280;3554;42.132;24.786;2022-10-22T13:05:22;99927.66;;;19.96;63.31
7026;BME280;3554;42.132;24.786;2022-10-22T13:07:51;99939.34;;;20.19;63.32
7026;BME280;3554;42.132;24.786;2022-10-22T13:10:23;99937.19;;;20.37;61.83
7026;BME280;3554;42.132;24.786;2022-10-22T13:12:54;99934.75;;;20.46;60.69
7026;BME280;3554;42.132;24.786;2022-10-22T13:15:33;99933.56;;;20.74;59.75
7026;BME280;3554;42.132;24.786;2022-10-22T13:18:02;99909.88;;;20.71;58.68
7026;BME280;3554;42.132;24.786;2022-10-22T13:20:30;99936.31;;;20.85;56.92
7026;BME280;3554;42.132;24.786;2022-10-22T13:22:58;99867.78;;;20.76;56.13